sensor_id;sensor_type;location;lat;lon;timestamp;temperature;humidity
75380;HTU21D;65641;44.714;37.756;2023-09-19T00:00:01;20.17;52.71
75380;HTU21D;65641;44.714;37.756;2023-09-19T00:01:06;20.17;52.73
75380;HTU21D;65641;44.714;37.756;2023-09-19T00:02:15;20.17;52.98
75380;HTU21D;65641;44.714;37.756;2023-09-19T00:03:18;20.17;52.69
75380;HTU21D;65641;44.714;37.756;2023-09-19T00:04:22;20.16;52.90
75380;HTU21D;65641;44.714;37.756;2023-09-19T00:05:34;20.16;52.91
75380;HTU21D;65641;44.714;37.756;2023-09-19T00:06:41;20.16;53.01
75380;HTU21D;65641;44.714;37.756;2023-09-19T00:07:45;20.16;52.99
75380;HTU21D;65641;44.714;37.756;2023-09-19T00:08:49;20.16;52.96
75380;HTU21D;65641;44.714;37.756;2023-09-19T00:09:52;20.14;52.99
75380;HTU21D;65641;44.714;37.756;2023-09-19T00:10:57;20.15;53.07
75380;HTU21D;65641;44.714;37.756;2023-09-19T00:12:08;20.14;53.08
75380;HTU21D;65641;44.714;37.756;2023-09-19T00:13:12;20.14;53.14
75380;HTU21D;65641;44.714;37.756;2023-09-19T00:14:18;20.13;53.01
75380;HTU21D;65641;44.714;37.756;2023-09-19T00:15:22;20.12;53.16
75380;HTU21D;65641;44.714;37.756;2023-09-19T00:16:26;20.12;53.22
75380;HTU21D;65641;44.714;37.756;2023-09-19T00:17:30;20.12;53.13
75380;HTU21D;65641;44.714;37.756;2023-09-19T00:18:33;20.11;53.27
75380;HTU21D;65641;44.714;37.756;2023-09-19T00:19:37;20.11;53.27
75380;HTU21D;65641;44.714;37.756;2023-09-19T00:20:41;20.10;53.24
75380;HTU21D;65641;44.714;37.756;2023-09-19T00:21:45;20.09;53.37
75380;HTU21D;65641;44.714;37.756;2023-09-19T00:22:50;20.10;53.39
75380;HTU21D;65641;44.714;37.756;2023-09-19T00:23:56;20.07;53.24
75380;HTU21D;65641;44.714;37.756;2023-09-19T00:25:00;20.09;53.34
75380;HTU21D;65641;44.714;37.756;2023-09-19T00:26:03;20.07;53.32
75380;HTU21D;65641;44.714;37.756;2023-09-19T00:27:07;20.06;53.32
75380;HTU21D;65641;44.714;37.756;2023-09-19T00:28:11;20.06;53.36
75380;HTU21D;65641;44.714;37.756;2023-09-19T00:29:14;20.06;53.50
75380;HTU21D;65641;44.714;37.756;2023-09-19T00:30:20;20.07;53.53
75380;HTU21D;65641;44.714;37.756;2023-09-19T00:31:24;20.06;53.43
75380;HTU21D;65641;44.714;37.756;2023-09-19T00:32:28;20.05;53.36
75380;HTU21D;65641;44.714;37.756;2023-09-19T00:33:35;20.05;53.38
75380;HTU21D;65641;44.714;37.756;2023-09-19T00:34:39;20.05;53.56
75380;HTU21D;65641;44.714;37.756;2023-09-19T00:35:49;20.04;53.51
75380;HTU21D;65641;44.714;37.756;2023-09-19T00:36:53;20.04;53.46
75380;HTU21D;65641;44.714;37.756;2023-09-19T00:37:56;20.03;53.44
75380;HTU21D;65641;44.714;37.756;2023-09-19T00:38:59;20.03;53.39
75380;HTU21D;65641;44.714;37.756;2023-09-19T00:40:09;20.02;53.52
75380;HTU21D;65641;44.714;37.756;2023-09-19T00:41:18;20.03;53.46
75380;HTU21D;65641;44.714;37.756;2023-09-19T00:42:22;20.03;53.63
75380;HTU21D;65641;44.714;37.756;2023-09-19T00:43:25;20.04;53.65
75380;HTU21D;65641;44.714;37.756;2023-09-19T00:44:31;20.04;53.65
75380;HTU21D;65641;44.714;37.756;2023-09-19T00:45:36;20.04;53.56
75380;HTU21D;65641;44.714;37.756;2023-09-19T00:46:41;20.03;53.45
75380;HTU21D;65641;44.714;37.756;2023-09-19T00:47:48;20.02;53.59
75380;HTU21D;65641;44.714;37.756;2023-09-19T00:48:54;20.03;53.63
75380;HTU21D;65641;44.714;37.756;2023-09-19T00:49:59;20.04;53.68
75380;HTU21D;65641;44.714;37.756;2023-09-19T00:51:05;20.04;53.65
75380;HTU21D;65641;44.714;37.756;2023-09-19T00:52:08;20.05;53.52
75380;HTU21D;65641;44.714;37.756;2023-09-19T00:53:17;20.05;53.52
75380;HTU21D;65641;44.714;37.756;2023-09-19T00:54:21;20.05;53.57
75380;HTU21D;65641;44.714;37.756;2023-09-19T00:55:26;20.05;53.68
75380;HTU21D;65641;44.714;37.756;2023-09-19T00:56:30;20.04;53.78
75380;HTU21D;65641;44.714;37.756;2023-09-19T00:57:35;20.04;53.66
75380;HTU21D;65641;44.714;37.756;2023-09-19T00:58:39;20.04;53.83
75380;HTU21D;65641;44.714;37.756;2023-09-19T00:59:43;20.05;53.74
75380;HTU21D;65641;44.714;37.756;2023-09-19T01:00:48;20.06;53.82
75380;HTU21D;65641;44.714;37.756;2023-09-19T01:01:51;20.05;53.84
75380;HTU21D;65641;44.714;37.756;2023-09-19T01:02:57;20.04;54.06
75380;HTU21D;65641;44.714;37.756;2023-09-19T01:04:00;20.05;53.94
75380;HTU21D;65641;44.714;37.756;2023-09-19T01:05:04;20.05;54.09
75380;HTU21D;65641;44.714;37.756;2023-09-19T01:06:08;20.04;54.11
75380;HTU21D;65641;44.714;37.756;2023-09-19T01:07:14;20.04;54.11
75380;HTU21D;65641;44.714;37.756;2023-09-19T01:08:21;20.05;54.15
75380;HTU21D;65641;44.714;37.756;2023-09-19T01:09:24;20.03;53.92
75380;HTU21D;65641;44.714;37.756;2023-09-19T01:10:28;20.04;53.94
75380;HTU21D;65641;44.714;37.756;2023-09-19T01:11:39;20.03;54.26
75380;HTU21D;65641;44.714;37.756;2023-09-19T01:16:10;20.01;54.20
75380;HTU21D;65641;44.714;37.756;2023-09-19T01:17:27;20.00;54.42
75380;HTU21D;65641;44.714;37.756;2023-09-19T01:21:11;19.98;54.46
75380;HTU21D;65641;44.714;37.756;2023-09-19T01:22:26;19.97;54.51
75380;HTU21D;65641;44.714;37.756;2023-09-19T01:25:07;19.96;54.34
75380;HTU21D;65641;44.714;37.756;2023-09-19T01:26:50;19.94;54.59
75380;HTU21D;65641;44.714;37.756;2023-09-19T01:29:39;19.92;54.65
75380;HTU21D;65641;44.714;37.756;2023-09-19T01:30:48;19.92;54.66
75380;HTU21D;65641;44.714;37.756;2023-09-19T01:32:01;19.92;54.52
75380;HTU21D;65641;44.714;37.756;2023-09-19T01:33:07;19.90;54.62
75380;HTU21D;65641;44.714;37.756;2023-09-19T01:34:11;19.90;54.75
75380;HTU21D;65641;44.714;37.756;2023-09-19T01:35:15;19.91;54.78
75380;HTU21D;65641;44.714;37.756;2023-09-19T01:36:18;19.90;54.68
75380;HTU21D;65641;44.714;37.756;2023-09-19T01:37:47;19.89;54.78
75380;HTU21D;65641;44.714;37.756;2023-09-19T01:38:52;19.89;54.81
75380;HTU21D;65641;44.714;37.756;2023-09-19T01:40:01;19.89;54.88
75380;HTU21D;65641;44.714;37.756;2023-09-19T01:43:05;19.88;54.93
75380;HTU21D;65641;44.714;37.756;2023-09-19T01:44:18;19.87;55.08
75380;HTU21D;65641;44.714;37.756;2023-09-19T01:45:27;19.86;54.92
75380;HTU21D;65641;44.714;37.756;2023-09-19T01:46:39;19.86;55.16
75380;HTU21D;65641;44.714;37.756;2023-09-19T01:47:55;19.85;55.10
75380;HTU21D;65641;44.714;37.756;2023-09-19T01:49:10;19.85;54.97
75380;HTU21D;65641;44.714;37.756;2023-09-19T01:50:34;19.85;54.84
75380;HTU21D;65641;44.714;37.756;2023-09-19T01:52:08;19.83;55.29
75380;HTU21D;65641;44.714;37.756;2023-09-19T01:53:25;19.82;55.13
75380;HTU21D;65641;44.714;37.756;2023-09-19T01:54:34;19.80;55.01
75380;HTU21D;65641;44.714;37.756;2023-09-19T01:55:47;19.80;55.23
75380;HTU21D;65641;44.714;37.756;2023-09-19T01:57:03;19.80;55.13
75380;HTU21D;65641;44.714;37.756;2023-09-19T01:58:29;19.77;55.20
75380;HTU21D;65641;44.714;37.756;2023-09-19T01:59:48;19.76;55.30
75380;HTU21D;65641;44.714;37.756;2023-09-19T02:00:55;19.75;55.28
75380;HTU21D;65641;44.714;37.756;2023-09-19T02:02:00;19.74;55.32
75380;HTU21D;65641;44.714;37.756;2023-09-19T02:03:05;19.72;55.35
75380;HTU21D;65641;44.714;37.756;2023-09-19T02:04:09;19.75;55.19
75380;HTU21D;65641;44.714;37.756;2023-09-19T02:05:13;19.73;55.23
75380;HTU21D;65641;44.714;37.756;2023-09-19T02:06:25;19.73;55.38
75380;HTU21D;65641;44.714;37.756;2023-09-19T02:07:30;19.72;55.26
75380;HTU21D;65641;44.714;37.756;2023-09-19T02:08:39;19.72;55.35
75380;HTU21D;65641;44.714;37.756;2023-09-19T02:09:42;19.70;55.31
75380;HTU21D;65641;44.714;37.756;2023-09-19T02:10:46;19.70;55.28
75380;HTU21D;65641;44.714;37.756;2023-09-19T02:11:52;19.69;55.31
75380;HTU21D;65641;44.714;37.756;2023-09-19T02:12:58;19.69;55.42
75380;HTU21D;65641;44.714;37.756;2023-09-19T02:14:03;19.69;55.52
75380;HTU21D;65641;44.714;37.756;2023-09-19T02:15:08;19.68;55.37
75380;HTU21D;65641;44.714;37.756;2023-09-19T02:16:12;19.67;55.57
75380;HTU21D;65641;44.714;37.756;2023-09-19T02:17:18;19.67;55.53
75380;HTU21D;65641;44.714;37.756;2023-09-19T02:18:23;19.66;55.46
75380;HTU21D;65641;44.714;37.756;2023-09-19T02:19:26;19.66;55.49
75380;HTU21D;65641;44.714;37.756;2023-09-19T02:20:31;19.65;55.56
75380;HTU21D;65641;44.714;37.756;2023-09-19T02:21:36;19.63;55.53
75380;HTU21D;65641;44.714;37.756;2023-09-19T02:22:43;19.65;55.59
75380;HTU21D;65641;44.714;37.756;2023-09-19T02:23:47;19.63;55.68
75380;HTU21D;65641;44.714;37.756;2023-09-19T02:24:50;19.62;55.77
75380;HTU21D;65641;44.714;37.756;2023-09-19T02:25:56;19.62;55.78
75380;HTU21D;65641;44.714;37.756;2023-09-19T02:27:09;19.60;55.70
75380;HTU21D;65641;44.714;37.756;2023-09-19T02:28:15;19.61;55.62
75380;HTU21D;65641;44.714;37.756;2023-09-19T02:29:19;19.60;55.63
75380;HTU21D;65641;44.714;37.756;2023-09-19T02:30:22;19.60;55.71
75380;HTU21D;65641;44.714;37.756;2023-09-19T02:31:30;19.58;55.71
75380;HTU21D;65641;44.714;37.756;2023-09-19T02:32:34;19.57;55.78
75380;HTU21D;65641;44.714;37.756;2023-09-19T02:33:42;19.57;55.87
75380;HTU21D;65641;44.714;37.756;2023-09-19T02:34:46;19.58;55.74
75380;HTU21D;65641;44.714;37.756;2023-09-19T02:35:53;19.57;55.69
75380;HTU21D;65641;44.714;37.756;2023-09-19T02:36:57;19.56;55.92
75380;HTU21D;65641;44.714;37.756;2023-09-19T02:38:01;19.57;55.85
75380;HTU21D;65641;44.714;37.756;2023-09-19T02:39:05;19.56;55.81
75380;HTU21D;65641;44.714;37.756;2023-09-19T02:40:10;19.56;56.01
75380;HTU21D;65641;44.714;37.756;2023-09-19T02:41:22;19.54;55.94
75380;HTU21D;65641;44.714;37.756;2023-09-19T02:42:26;19.54;56.07
75380;HTU21D;65641;44.714;37.756;2023-09-19T02:43:29;19.53;56.07
75380;HTU21D;65641;44.714;37.756;2023-09-19T02:44:33;19.55;56.07
75380;HTU21D;65641;44.714;37.756;2023-09-19T02:45:37;19.54;56.05
75380;HTU21D;65641;44.714;37.756;2023-09-19T02:46:40;19.54;56.10
75380;HTU21D;65641;44.714;37.756;2023-09-19T02:47:47;19.52;56.09
75380;HTU21D;65641;44.714;37.756;2023-09-19T02:48:51;19.52;56.16
75380;HTU21D;65641;44.714;37.756;2023-09-19T02:49:54;19.52;56.24
75380;HTU21D;65641;44.714;37.756;2023-09-19T02:50:58;19.52;56.07
75380;HTU21D;65641;44.714;37.756;2023-09-19T02:52:01;19.51;56.11
75380;HTU21D;65641;44.714;37.756;2023-09-19T02:53:06;19.50;56.15
75380;HTU21D;65641;44.714;37.756;2023-09-19T02:54:10;19.48;56.33
75380;HTU21D;65641;44.714;37.756;2023-09-19T02:55:18;19.48;56.25
75380;HTU21D;65641;44.714;37.756;2023-09-19T02:56:23;19.46;56.38
75380;HTU21D;65641;44.714;37.756;2023-09-19T02:57:28;19.46;56.27
75380;HTU21D;65641;44.714;37.756;2023-09-19T02:58:32;19.45;56.26
75380;HTU21D;65641;44.714;37.756;2023-09-19T02:59:38;19.46;56.36
75380;HTU21D;65641;44.714;37.756;2023-09-19T03:00:43;19.44;56.42
75380;HTU21D;65641;44.714;37.756;2023-09-19T03:01:51;19.45;56.59
75380;HTU21D;65641;44.714;37.756;2023-09-19T03:02:57;19.46;56.80
75380;HTU21D;65641;44.714;37.756;2023-09-19T03:04:03;19.44;56.97
75380;HTU21D;65641;44.714;37.756;2023-09-19T03:05:11;19.45;57.26
75380;HTU21D;65641;44.714;37.756;2023-09-19T03:06:15;19.43;57.26
75380;HTU21D;65641;44.714;37.756;2023-09-19T03:07:19;19.44;57.26
75380;HTU21D;65641;44.714;37.756;2023-09-19T03:08:22;19.46;57.74
75380;HTU21D;65641;44.714;37.756;2023-09-19T03:09:26;19.44;57.64
75380;HTU21D;65641;44.714;37.756;2023-09-19T03:10:30;19.45;57.77
75380;HTU21D;65641;44.714;37.756;2023-09-19T03:11:34;19.45;57.56
75380;HTU21D;65641;44.714;37.756;2023-09-19T03:12:37;19.46;57.78
75380;HTU21D;65641;44.714;37.756;2023-09-19T03:13:43;19.46;57.82
75380;HTU21D;65641;44.714;37.756;2023-09-19T03:14:49;19.47;57.83
75380;HTU21D;65641;44.714;37.756;2023-09-19T03:15:54;19.48;57.75
75380;HTU21D;65641;44.714;37.756;2023-09-19T03:17:03;19.47;57.75
75380;HTU21D;65641;44.714;37.756;2023-09-19T03:18:09;19.50;57.96
75380;HTU21D;65641;44.714;37.756;2023-09-19T03:19:13;19.51;58.02
75380;HTU21D;65641;44.714;37.756;2023-09-19T03:20:19;19.50;58.00
75380;HTU21D;65641;44.714;37.756;2023-09-19T03:21:25;19.53;58.05
75380;HTU21D;65641;44.714;37.756;2023-09-19T03:22:29;19.53;58.00
75380;HTU21D;65641;44.714;37.756;2023-09-19T03:23:32;19.54;57.99
75380;HTU21D;65641;44.714;37.756;2023-09-19T03:24:36;19.53;58.02
75380;HTU21D;65641;44.714;37.756;2023-09-19T03:25:41;19.55;57.93
75380;HTU21D;65641;44.714;37.756;2023-09-19T03:26:45;19.55;57.87
75380;HTU21D;65641;44.714;37.756;2023-09-19T03:27:49;19.57;57.96
75380;HTU21D;65641;44.714;37.756;2023-09-19T03:28:54;19.58;57.91
75380;HTU21D;65641;44.714;37.756;2023-09-19T03:29:58;19.57;57.93
75380;HTU21D;65641;44.714;37.756;2023-09-19T03:31:04;19.57;57.90
75380;HTU21D;65641;44.714;37.756;2023-09-19T03:32:10;19.59;57.93
75380;HTU21D;65641;44.714;37.756;2023-09-19T03:33:14;19.60;57.87
75380;HTU21D;65641;44.714;37.756;2023-09-19T03:34:18;19.60;57.91
75380;HTU21D;65641;44.714;37.756;2023-09-19T03:35:22;19.63;57.83
75380;HTU21D;65641;44.714;37.756;2023-09-19T03:36:26;19.65;57.74
75380;HTU21D;65641;44.714;37.756;2023-09-19T03:37:31;19.66;57.70
75380;HTU21D;65641;44.714;37.756;2023-09-19T03:38:38;19.68;57.62
75380;HTU21D;65641;44.714;37.756;2023-09-19T03:39:42;19.69;57.58
75380;HTU21D;65641;44.714;37.756;2023-09-19T03:40:46;19.72;57.60
75380;HTU21D;65641;44.714;37.756;2023-09-19T03:41:50;19.72;57.58
75380;HTU21D;65641;44.714;37.756;2023-09-19T03:42:53;19.73;57.55
75380;HTU21D;65641;44.714;37.756;2023-09-19T03:43:57;19.74;57.47
75380;HTU21D;65641;44.714;37.756;2023-09-19T03:45:00;19.76;57.32
75380;HTU21D;65641;44.714;37.756;2023-09-19T03:46:07;19.80;57.34
75380;HTU21D;65641;44.714;37.756;2023-09-19T03:47:13;19.79;57.30
75380;HTU21D;65641;44.714;37.756;2023-09-19T03:48:17;19.82;57.28
75380;HTU21D;65641;44.714;37.756;2023-09-19T03:49:20;19.84;57.26
75380;HTU21D;65641;44.714;37.756;2023-09-19T03:50:23;19.85;57.13
75380;HTU21D;65641;44.714;37.756;2023-09-19T03:51:27;19.86;57.15
75380;HTU21D;65641;44.714;37.756;2023-09-19T03:52:30;19.89;57.08
75380;HTU21D;65641;44.714;37.756;2023-09-19T03:53:33;19.90;57.10
75380;HTU21D;65641;44.714;37.756;2023-09-19T03:54:37;19.92;57.02
75380;HTU21D;65641;44.714;37.756;2023-09-19T03:55:44;19.95;56.97
75380;HTU21D;65641;44.714;37.756;2023-09-19T03:56:49;19.95;56.99
75380;HTU21D;65641;44.714;37.756;2023-09-19T03:57:53;19.99;56.93
75380;HTU21D;65641;44.714;37.756;2023-09-19T03:58:56;19.99;56.88
75380;HTU21D;65641;44.714;37.756;2023-09-19T03:59:59;20.01;56.82
75380;HTU21D;65641;44.714;37.756;2023-09-19T04:01:02;20.03;56.81
75380;HTU21D;65641;44.714;37.756;2023-09-19T04:02:05;20.05;56.76
75380;HTU21D;65641;44.714;37.756;2023-09-19T04:03:14;20.07;56.71
75380;HTU21D;65641;44.714;37.756;2023-09-19T04:04:22;20.11;56.55
75380;HTU21D;65641;44.714;37.756;2023-09-19T04:05:27;20.12;56.52
75380;HTU21D;65641;44.714;37.756;2023-09-19T04:06:30;20.13;56.51
75380;HTU21D;65641;44.714;37.756;2023-09-19T04:07:34;20.13;56.48
75380;HTU21D;65641;44.714;37.756;2023-09-19T04:08:37;20.14;56.44
75380;HTU21D;65641;44.714;37.756;2023-09-19T04:09:41;20.18;56.39
75380;HTU21D;65641;44.714;37.756;2023-09-19T04:10:44;20.18;56.41
75380;HTU21D;65641;44.714;37.756;2023-09-19T04:11:48;20.19;56.33
75380;HTU21D;65641;44.714;37.756;2023-09-19T04:12:54;20.21;56.29
75380;HTU21D;65641;44.714;37.756;2023-09-19T04:13:58;20.22;56.28
75380;HTU21D;65641;44.714;37.756;2023-09-19T04:15:02;20.24;56.21
75380;HTU21D;65641;44.714;37.756;2023-09-19T04:16:06;20.25;56.23
75380;HTU21D;65641;44.714;37.756;2023-09-19T04:17:10;20.27;56.23
75380;HTU21D;65641;44.714;37.756;2023-09-19T04:18:14;20.28;56.16
75380;HTU21D;65641;44.714;37.756;2023-09-19T04:19:17;20.30;56.14
75380;HTU21D;65641;44.714;37.756;2023-09-19T04:20:21;20.32;56.03
75380;HTU21D;65641;44.714;37.756;2023-09-19T04:21:28;20.32;56.00
75380;HTU21D;65641;44.714;37.756;2023-09-19T04:22:32;20.35;55.98
75380;HTU21D;65641;44.714;37.756;2023-09-19T04:23:35;20.35;55.89
75380;HTU21D;65641;44.714;37.756;2023-09-19T04:24:39;20.39;55.79
75380;HTU21D;65641;44.714;37.756;2023-09-19T04:25:42;20.40;55.71
75380;HTU21D;65641;44.714;37.756;2023-09-19T04:26:46;20.42;55.67
75380;HTU21D;65641;44.714;37.756;2023-09-19T04:27:49;20.43;55.63
75380;HTU21D;65641;44.714;37.756;2023-09-19T04:28:53;20.45;55.58
75380;HTU21D;65641;44.714;37.756;2023-09-19T04:29:56;20.47;55.45
75380;HTU21D;65641;44.714;37.756;2023-09-19T04:31:03;20.48;55.35
75380;HTU21D;65641;44.714;37.756;2023-09-19T04:32:06;20.49;55.25
75380;HTU21D;65641;44.714;37.756;2023-09-19T04:33:10;20.53;55.18
75380;HTU21D;65641;44.714;37.756;2023-09-19T04:34:14;20.55;55.13
75380;HTU21D;65641;44.714;37.756;2023-09-19T04:35:18;20.56;55.04
75380;HTU21D;65641;44.714;37.756;2023-09-19T04:36:22;20.58;54.95
75380;HTU21D;65641;44.714;37.756;2023-09-19T04:37:41;20.61;54.86
75380;HTU21D;65641;44.714;37.756;2023-09-19T04:38:47;20.62;54.77
75380;HTU21D;65641;44.714;37.756;2023-09-19T04:39:50;20.64;54.73
75380;HTU21D;65641;44.714;37.756;2023-09-19T04:40:57;20.66;54.65
75380;HTU21D;65641;44.714;37.756;2023-09-19T04:42:01;20.68;54.55
75380;HTU21D;65641;44.714;37.756;2023-09-19T04:43:06;20.69;54.49
75380;HTU21D;65641;44.714;37.756;2023-09-19T04:44:10;20.73;54.40
75380;HTU21D;65641;44.714;37.756;2023-09-19T04:45:13;20.74;54.33
75380;HTU21D;65641;44.714;37.756;2023-09-19T04:46:16;20.75;54.28
75380;HTU21D;65641;44.714;37.756;2023-09-19T04:47:20;20.78;54.21
75380;HTU21D;65641;44.714;37.756;2023-09-19T04:48:25;20.79;54.10
75380;HTU21D;65641;44.714;37.756;2023-09-19T04:49:28;20.79;54.07
75380;HTU21D;65641;44.714;37.756;2023-09-19T04:50:31;20.81;54.01
75380;HTU21D;65641;44.714;37.756;2023-09-19T04:51:35;20.86;53.91
75380;HTU21D;65641;44.714;37.756;2023-09-19T04:52:43;20.88;53.81
75380;HTU21D;65641;44.714;37.756;2023-09-19T04:53:47;20.88;53.78
75380;HTU21D;65641;44.714;37.756;2023-09-19T04:54:52;20.91;53.74
75380;HTU21D;65641;44.714;37.756;2023-09-19T04:55:55;20.93;53.65
75380;HTU21D;65641;44.714;37.756;2023-09-19T04:56:59;20.94;53.56
75380;HTU21D;65641;44.714;37.756;2023-09-19T04:58:03;20.95;53.39
75380;HTU21D;65641;44.714;37.756;2023-09-19T04:59:06;20.99;53.42
75380;HTU21D;65641;44.714;37.756;2023-09-19T05:00:17;20.99;53.39
75380;HTU21D;65641;44.714;37.756;2023-09-19T05:01:25;21.01;53.29
75380;HTU21D;65641;44.714;37.756;2023-09-19T05:02:29;21.04;53.20
75380;HTU21D;65641;44.714;37.756;2023-09-19T05:03:34;21.06;53.10
75380;HTU21D;65641;44.714;37.756;2023-09-19T05:04:37;21.08;52.98
75380;HTU21D;65641;44.714;37.756;2023-09-19T05:05:41;21.11;52.92
75380;HTU21D;65641;44.714;37.756;2023-09-19T05:06:45;21.13;52.84
75380;HTU21D;65641;44.714;37.756;2023-09-19T05:07:49;21.14;52.78
75380;HTU21D;65641;44.714;37.756;2023-09-19T05:08:52;21.15;52.67
75380;HTU21D;65641;44.714;37.756;2023-09-19T05:09:55;21.18;52.62
75380;HTU21D;65641;44.714;37.756;2023-09-19T05:11:02;21.18;52.57
75380;HTU21D;65641;44.714;37.756;2023-09-19T05:12:05;21.21;52.44
75380;HTU21D;65641;44.714;37.756;2023-09-19T05:13:09;21.22;52.45
75380;HTU21D;65641;44.714;37.756;2023-09-19T05:14:13;21.25;52.37
75380;HTU21D;65641;44.714;37.756;2023-09-19T05:15:16;21.29;52.27
75380;HTU21D;65641;44.714;37.756;2023-09-19T05:16:20;21.31;52.23
75380;HTU21D;65641;44.714;37.756;2023-09-19T05:17:23;21.32;52.17
75380;HTU21D;65641;44.714;37.756;2023-09-19T05:18:27;21.34;52.11
75380;HTU21D;65641;44.714;37.756;2023-09-19T05:19:31;21.35;52.04
75380;HTU21D;65641;44.714;37.756;2023-09-19T05:20:34;21.37;51.95
75380;HTU21D;65641;44.714;37.756;2023-09-19T05:21:40;21.38;51.93
75380;HTU21D;65641;44.714;37.756;2023-09-19T05:22:44;21.42;51.87
75380;HTU21D;65641;44.714;37.756;2023-09-19T05:23:51;21.44;51.74
75380;HTU21D;65641;44.714;37.756;2023-09-19T05:24:55;21.46;51.64
75380;HTU21D;65641;44.714;37.756;2023-09-19T05:25:58;21.48;51.58
75380;HTU21D;65641;44.714;37.756;2023-09-19T05:27:02;21.50;51.56
75380;HTU21D;65641;44.714;37.756;2023-09-19T05:28:08;21.50;51.50
75380;HTU21D;65641;44.714;37.756;2023-09-19T05:29:12;21.52;51.43
75380;HTU21D;65641;44.714;37.756;2023-09-19T05:30:15;21.55;51.46
75380;HTU21D;65641;44.714;37.756;2023-09-19T05:31:18;21.59;51.32
75380;HTU21D;65641;44.714;37.756;2023-09-19T05:32:22;21.62;51.32
75380;HTU21D;65641;44.714;37.756;2023-09-19T05:33:25;21.64;51.27
75380;HTU21D;65641;44.714;37.756;2023-09-19T05:34:30;21.65;51.19
75380;HTU21D;65641;44.714;37.756;2023-09-19T05:35:33;21.66;51.11
75380;HTU21D;65641;44.714;37.756;2023-09-19T05:36:36;21.68;51.11
75380;HTU21D;65641;44.714;37.756;2023-09-19T05:37:40;21.72;51.00
75380;HTU21D;65641;44.714;37.756;2023-09-19T05:38:43;21.73;51.03
75380;HTU21D;65641;44.714;37.756;2023-09-19T05:39:47;21.75;50.90
75380;HTU21D;65641;44.714;37.756;2023-09-19T05:40:51;21.77;50.88
75380;HTU21D;65641;44.714;37.756;2023-09-19T05:41:54;21.79;50.83
75380;HTU21D;65641;44.714;37.756;2023-09-19T05:42:59;21.82;50.79
75380;HTU21D;65641;44.714;37.756;2023-09-19T05:44:03;21.83;50.69
75380;HTU21D;65641;44.714;37.756;2023-09-19T05:45:07;21.85;50.69
75380;HTU21D;65641;44.714;37.756;2023-09-19T05:46:11;21.88;50.66
75380;HTU21D;65641;44.714;37.756;2023-09-19T05:47:14;21.88;50.67
75380;HTU21D;65641;44.714;37.756;2023-09-19T05:48:17;21.90;50.62
75380;HTU21D;65641;44.714;37.756;2023-09-19T05:49:21;21.94;50.53
75380;HTU21D;65641;44.714;37.756;2023-09-19T05:50:24;21.96;50.50
75380;HTU21D;65641;44.714;37.756;2023-09-19T05:51:27;21.98;50.41
75380;HTU21D;65641;44.714;37.756;2023-09-19T05:52:31;21.98;50.38
75380;HTU21D;65641;44.714;37.756;2023-09-19T05:53:34;21.99;50.36
75380;HTU21D;65641;44.714;37.756;2023-09-19T05:54:38;22.02;50.37
75380;HTU21D;65641;44.714;37.756;2023-09-19T05:55:41;22.05;50.30
75380;HTU21D;65641;44.714;37.756;2023-09-19T05:56:45;22.06;50.31
75380;HTU21D;65641;44.714;37.756;2023-09-19T05:57:50;22.08;50.24
75380;HTU21D;65641;44.714;37.756;2023-09-19T05:58:54;22.10;50.21
75380;HTU21D;65641;44.714;37.756;2023-09-19T05:59:58;22.12;50.20
75380;HTU21D;65641;44.714;37.756;2023-09-19T06:01:01;22.14;50.15
75380;HTU21D;65641;44.714;37.756;2023-09-19T06:02:04;22.16;50.07
75380;HTU21D;65641;44.714;37.756;2023-09-19T06:03:09;22.18;50.03
75380;HTU21D;65641;44.714;37.756;2023-09-19T06:04:12;22.18;49.99
75380;HTU21D;65641;44.714;37.756;2023-09-19T06:05:16;22.22;49.95
75380;HTU21D;65641;44.714;37.756;2023-09-19T06:06:19;22.23;49.93
75380;HTU21D;65641;44.714;37.756;2023-09-19T06:07:23;22.25;49.87
75380;HTU21D;65641;44.714;37.756;2023-09-19T06:08:29;22.26;49.82
75380;HTU21D;65641;44.714;37.756;2023-09-19T06:09:33;22.28;49.76
75380;HTU21D;65641;44.714;37.756;2023-09-19T06:10:36;22.29;49.78
75380;HTU21D;65641;44.714;37.756;2023-09-19T06:11:42;22.32;49.73
75380;HTU21D;65641;44.714;37.756;2023-09-19T06:12:45;22.33;49.65
75380;HTU21D;65641;44.714;37.756;2023-09-19T06:13:48;22.35;49.66
75380;HTU21D;65641;44.714;37.756;2023-09-19T06:14:51;22.37;49.63
75380;HTU21D;65641;44.714;37.756;2023-09-19T06:15:55;22.39;49.59
75380;HTU21D;65641;44.714;37.756;2023-09-19T06:17:02;22.41;49.53
75380;HTU21D;65641;44.714;37.756;2023-09-19T06:18:11;22.41;49.49
75380;HTU21D;65641;44.714;37.756;2023-09-19T06:19:18;22.43;49.50
75380;HTU21D;65641;44.714;37.756;2023-09-19T06:20:25;22.44;49.50
75380;HTU21D;65641;44.714;37.756;2023-09-19T06:21:29;22.48;49.37
75380;HTU21D;65641;44.714;37.756;2023-09-19T06:22:32;22.51;49.33
75380;HTU21D;65641;44.714;37.756;2023-09-19T06:23:35;22.52;49.31
75380;HTU21D;65641;44.714;37.756;2023-09-19T06:24:39;22.53;49.27
75380;HTU21D;65641;44.714;37.756;2023-09-19T06:25:43;22.54;49.28
75380;HTU21D;65641;44.714;37.756;2023-09-19T06:26:46;22.55;49.29
75380;HTU21D;65641;44.714;37.756;2023-09-19T06:27:52;22.57;49.19
75380;HTU21D;65641;44.714;37.756;2023-09-19T06:28:57;22.61;49.16
75380;HTU21D;65641;44.714;37.756;2023-09-19T06:30:00;22.63;49.11
75380;HTU21D;65641;44.714;37.756;2023-09-19T06:31:06;22.62;49.08
75380;HTU21D;65641;44.714;37.756;2023-09-19T06:32:12;22.63;49.08
75380;HTU21D;65641;44.714;37.756;2023-09-19T06:33:16;22.64;49.10
75380;HTU21D;65641;44.714;37.756;2023-09-19T06:34:21;22.66;48.99
75380;HTU21D;65641;44.714;37.756;2023-09-19T06:35:26;22.67;49.02
75380;HTU21D;65641;44.714;37.756;2023-09-19T06:36:29;22.68;48.99
75380;HTU21D;65641;44.714;37.756;2023-09-19T06:37:33;22.69;48.98
75380;HTU21D;65641;44.714;37.756;2023-09-19T06:38:37;22.70;48.96
75380;HTU21D;65641;44.714;37.756;2023-09-19T06:39:41;22.71;48.89
75380;HTU21D;65641;44.714;37.756;2023-09-19T06:40:45;22.72;48.88
75380;HTU21D;65641;44.714;37.756;2023-09-19T06:41:49;22.75;48.81
75380;HTU21D;65641;44.714;37.756;2023-09-19T06:42:53;22.77;48.80
75380;HTU21D;65641;44.714;37.756;2023-09-19T06:43:57;22.77;48.76
75380;HTU21D;65641;44.714;37.756;2023-09-19T06:45:00;22.77;48.75
75380;HTU21D;65641;44.714;37.756;2023-09-19T06:46:06;22.79;48.71
75380;HTU21D;65641;44.714;37.756;2023-09-19T06:47:10;22.82;48.69
75380;HTU21D;65641;44.714;37.756;2023-09-19T06:48:13;22.82;48.65
75380;HTU21D;65641;44.714;37.756;2023-09-19T06:49:17;22.83;48.66
75380;HTU21D;65641;44.714;37.756;2023-09-19T06:50:22;22.84;48.62
75380;HTU21D;65641;44.714;37.756;2023-09-19T06:51:26;22.88;48.53